createdAt,value
2022-08-09T00:00:05.800Z,82.23
2022-08-09T00:00:20.438Z,82.3
2022-08-09T00:00:44.519Z,82.91
2022-08-09T00:01:00.980Z,83.28
2022-08-09T00:01:20.726Z,83.37
2022-08-09T00:01:52.499Z,83.06
2022-08-09T00:02:00.840Z,82.85
2022-08-09T00:02:20.866Z,83.45
2022-08-09T00:02:42.885Z,83.35
2022-08-09T00:03:01.017Z,83.51
2022-08-09T00:04:06.367Z,82.82
2022-08-09T00:04:08.568Z,83.38
2022-08-09T00:04:11.158Z,82.68
2022-08-09T00:04:25.161Z,83.36
2022-08-09T00:04:41.439Z,83.59
2022-08-09T00:06:15.639Z,83.71
2022-08-09T00:06:15.822Z,83.84
2022-08-09T00:06:17.736Z,83.64
2022-08-09T00:06:19.471Z,83.48
2022-08-09T00:06:23.455Z,83.61
2022-08-09T00:06:44.256Z,83.72
2022-08-09T00:07:01.954Z,83.71
2022-08-09T00:07:22.018Z,84
2022-08-09T00:07:44.765Z,84.16
2022-08-09T00:08:02.224Z,84.36
2022-08-09T00:08:31.913Z,84.2
2022-08-09T00:08:42.401Z,83.66
2022-08-09T00:09:02.469Z,83.45
2022-08-09T00:09:22.527Z,83.28
2022-08-09T00:09:42.633Z,83.57
2022-08-09T00:10:02.710Z,83.4
2022-08-09T00:10:24.569Z,83.3
2022-08-09T00:10:42.852Z,83.12
2022-08-09T00:11:05.909Z,82.99
2022-08-09T00:11:25.203Z,82.95
2022-08-09T00:12:01.542Z,83.21
2022-08-09T00:12:04.849Z,83.49
2022-08-09T00:12:23.221Z,83.35
2022-08-09T00:12:43.320Z,83.18
2022-08-09T00:13:03.407Z,83.49
2022-08-09T00:13:23.511Z,83.8
2022-08-09T00:13:43.544Z,84.05
2022-08-09T00:14:03.630Z,84.34
2022-08-09T00:14:30.605Z,84.17
2022-08-09T00:14:45.376Z,84.27
2022-08-09T00:15:06.796Z,84.24
2022-08-09T00:15:35.633Z,84.15
2022-08-09T00:15:58.694Z,84.34
2022-08-09T00:16:04.120Z,84.46
2022-08-09T00:16:26.038Z,84.26
2022-08-09T00:16:44.276Z,84.31
2022-08-09T00:17:04.333Z,84.56
2022-08-09T00:18:07.477Z,85.08
2022-08-09T00:18:10.467Z,85.12
2022-08-09T00:18:11.172Z,84.77
2022-08-09T00:18:24.691Z,84.9
2022-08-09T00:18:44.763Z,85.17
2022-08-09T00:19:10.333Z,85.13
2022-08-09T00:19:24.884Z,85
2022-08-09T00:19:48.011Z,84.66
2022-08-09T00:20:05.032Z,84.78
2022-08-09T00:20:25.150Z,84.67
2022-08-09T00:20:50.010Z,84.86
2022-08-09T00:21:07.998Z,85.08
2022-08-09T00:21:25.311Z,85.6
2022-08-09T00:21:56.781Z,85.82
2022-08-09T00:22:05.463Z,85.14
2022-08-09T00:22:25.538Z,84.7
2022-08-09T00:22:47.229Z,84.66
2022-08-09T00:23:53.752Z,85.08
2022-08-09T00:23:56.330Z,85.02
2022-08-09T00:23:57.598Z,85.17
2022-08-09T00:24:05.954Z,84.99
2022-08-09T00:24:27.231Z,84.67
2022-08-09T00:24:46.104Z,84.82
2022-08-09T00:25:08.501Z,85.24
2022-08-09T00:25:32.686Z,85.44
2022-08-09T00:25:46.306Z,85.48
2022-08-09T00:26:06.392Z,85.26
2022-08-09T00:26:32.101Z,85.14
2022-08-09T00:26:46.528Z,85.38
2022-08-09T00:27:06.593Z,85.44
2022-08-09T00:27:27.752Z,84.83
2022-08-09T00:27:47.917Z,84.6
2022-08-09T00:28:06.777Z,85.05
2022-08-09T00:28:27.308Z,85.26
2022-08-09T00:28:52.285Z,85.49
2022-08-09T00:29:12.394Z,85.45
2022-08-09T00:30:09.973Z,85.61
2022-08-09T00:30:23.473Z,85.95
2022-08-09T00:30:24.334Z,85.86
2022-08-09T00:30:27.324Z,86.05
2022-08-09T00:30:47.400Z,86.07
2022-08-09T00:31:50.639Z,86.13
2022-08-09T00:31:58.838Z,86.2
2022-08-09T00:31:59.407Z,86.42
2022-08-09T00:32:07.735Z,86.61
2022-08-09T00:32:27.833Z,86.57
2022-08-09T00:32:47.927Z,86.59
2022-08-09T00:33:08.010Z,86.54
2022-08-09T00:33:32.559Z,86.53
2022-08-09T00:33:49.031Z,86.62
2022-08-09T00:34:08.209Z,86.63
2022-08-09T00:34:28.290Z,86.46
2022-08-09T00:34:52.261Z,86.21
2022-08-09T00:35:08.431Z,86.22
2022-08-09T00:35:29.679Z,86.21
2022-08-09T00:35:48.564Z,86.12
2022-08-09T00:36:08.649Z,86.21
2022-08-09T00:36:30.743Z,86.17
2022-08-09T00:36:49.221Z,85.83
2022-08-09T00:37:08.878Z,85.81
2022-08-09T00:37:32.310Z,85.99
2022-08-09T00:37:49.019Z,85.93
2022-08-09T00:38:09.091Z,86.16
2022-08-09T00:38:29.154Z,86.4
2022-08-09T00:38:50.732Z,86.43
2022-08-09T00:39:16.967Z,86.51
2022-08-09T00:40:09.581Z,86.38
2022-08-09T00:40:13.225Z,86.34
2022-08-09T00:40:16.532Z,86.33
2022-08-09T00:40:30.302Z,86.52
2022-08-09T00:40:53.204Z,86.67
2022-08-09T00:41:09.971Z,86.54
2022-08-09T00:44:10.835Z,86.51
2022-08-09T00:44:11.081Z,86.68
2022-08-09T00:44:13.140Z,86.59
2022-08-09T00:44:13.998Z,86.66
2022-08-09T00:44:14.159Z,86.46
2022-08-09T00:44:14.160Z,86.75
2022-08-09T00:44:15.501Z,86.7
2022-08-09T00:44:16.377Z,86.59
2022-08-09T00:44:25.563Z,86.6
2022-08-09T00:44:30.870Z,86.23
2022-08-09T00:44:50.556Z,86.36
2022-08-09T00:45:15.684Z,86.53
2022-08-09T00:45:30.722Z,86.31
2022-08-09T00:45:54.168Z,85.92
2022-08-09T00:46:10.862Z,85.96
2022-08-09T00:46:56.313Z,85.77
2022-08-09T00:46:57.844Z,85.91
2022-08-09T00:47:15.443Z,85.92
2022-08-09T00:47:35.869Z,85.93
2022-08-09T00:47:51.191Z,85.82
2022-08-09T00:48:15.496Z,85.75
2022-08-09T00:48:31.365Z,85.99
2022-08-09T00:48:51.455Z,86.03
2022-08-09T00:49:11.513Z,86.06
2022-08-09T00:49:31.568Z,85.94
2022-08-09T00:49:54.491Z,85.72
2022-08-09T00:50:14.615Z,85.91
2022-08-09T00:50:31.773Z,86.33
2022-08-09T00:50:52.129Z,86.69
2022-08-09T00:51:13.046Z,86.92
2022-08-09T00:51:33.911Z,87
2022-08-09T00:51:54.157Z,86.92
2022-08-09T00:52:17.793Z,86.84
2022-08-09T00:52:32.647Z,87.08
2022-08-09T00:52:52.243Z,87
2022-08-09T00:53:12.319Z,87
2022-08-09T00:53:32.383Z,86.39
2022-08-09T00:53:52.627Z,86.54
2022-08-09T00:54:12.554Z,86.7
2022-08-09T00:54:36.034Z,86.62
2022-08-09T00:54:52.730Z,86.36
2022-08-09T00:55:32.920Z,86.48
2022-08-09T00:56:03.886Z,86.75
2022-08-09T00:56:05.520Z,86.5
2022-08-09T00:56:13.019Z,86.94
2022-08-09T00:56:33.103Z,87.08
2022-08-09T00:56:53.181Z,87.3
2022-08-09T00:57:13.648Z,87.8
2022-08-09T00:57:34.595Z,88.36
2022-08-09T00:57:53.403Z,88.81
2022-08-09T00:58:14.781Z,89.11
2022-08-09T00:58:33.550Z,88.89
2022-08-09T00:58:53.636Z,88.24
2022-08-09T00:59:13.693Z,87.88
2022-08-09T00:59:41.102Z,87.75
2022-08-09T00:59:53.848Z,87.57
2022-08-09T01:00:21.986Z,87.38
2022-08-09T01:00:35.128Z,87.27
2022-08-09T01:00:54.116Z,87.19
2022-08-09T01:01:16.264Z,87.18
2022-08-09T01:01:44.705Z,87.08
2022-08-09T01:01:54.284Z,87.03
2022-08-09T01:02:14.356Z,87.06
2022-08-09T01:02:34.625Z,86.56
2022-08-09T01:02:54.471Z,86.49
2022-08-09T01:03:14.694Z,86.37
2022-08-09T01:03:36.404Z,86.44
2022-08-09T01:03:55.035Z,86.44
2022-08-09T01:04:14.771Z,86.79
2022-08-09T01:04:34.826Z,87.34
2022-08-09T01:04:54.923Z,87.71
2022-08-09T01:05:21.870Z,87.81
2022-08-09T01:05:53.540Z,87.75
2022-08-09T01:05:55.124Z,87.37
2022-08-09T01:06:18.381Z,87.62
2022-08-09T01:06:54.448Z,87.77
2022-08-09T01:06:55.721Z,88.3
2022-08-09T01:07:15.462Z,88.13
2022-08-09T01:07:38.098Z,88.13
2022-08-09T01:08:00.829Z,87.86
2022-08-09T01:08:16.227Z,87.63
2022-08-09T01:08:36.941Z,87.8
2022-08-09T01:08:55.813Z,87.97
2022-08-09T01:09:15.877Z,88.22
2022-08-09T01:09:36.820Z,88.45
2022-08-09T01:09:56.038Z,88.67
2022-08-09T01:10:16.107Z,88.48
2022-08-09T01:10:36.181Z,88.46
2022-08-09T01:10:56.303Z,88.26
2022-08-09T01:11:16.362Z,88.3
2022-08-09T01:11:36.426Z,88.19
2022-08-09T01:11:56.500Z,88.28
2022-08-09T01:12:16.569Z,88.54
2022-08-09T01:12:36.654Z,88.52
2022-08-09T01:12:56.760Z,88.26
2022-08-09T01:13:17.076Z,88.3
2022-08-09T01:13:53.593Z,88.49
2022-08-09T01:14:00.056Z,88.72
2022-08-09T01:14:17.071Z,88.54
2022-08-09T01:14:37.123Z,88.35
2022-08-09T01:14:57.225Z,88.24
2022-08-09T01:15:17.825Z,88.12
2022-08-09T01:15:41.064Z,87.95
2022-08-09T01:15:57.402Z,87.73
2022-08-09T01:16:17.501Z,87.57
2022-08-09T01:16:37.584Z,87.8
2022-08-09T01:16:57.661Z,87.93
2022-08-09T01:17:17.903Z,87.84
2022-08-09T01:17:37.809Z,88.02
2022-08-09T01:17:57.989Z,88.11
2022-08-09T01:18:17.934Z,88.09
2022-08-09T01:18:38.026Z,88.15
2022-08-09T01:19:04.494Z,88.16
2022-08-09T01:19:28.966Z,88.01
2022-08-09T01:19:42.944Z,88.02
2022-08-09T01:20:02.444Z,88.06
2022-08-09T01:20:18.399Z,87.93
2022-08-09T01:20:38.473Z,88.11
2022-08-09T01:20:58.550Z,88.2
2022-08-09T01:21:18.643Z,88.26
2022-08-09T01:21:41.220Z,88.35
2022-08-09T01:21:59.429Z,88.53
2022-08-09T01:22:18.864Z,88.36
2022-08-09T01:22:38.927Z,88.52
2022-08-09T01:22:59.019Z,88.06
2022-08-09T01:24:02.679Z,87.79
2022-08-09T01:24:03.222Z,87.62
2022-08-09T01:24:03.284Z,87.7
2022-08-09T01:24:19.310Z,87.54
2022-08-09T01:24:39.376Z,87.75
2022-08-09T01:24:59.477Z,88.28
2022-08-09T01:25:19.556Z,88.23
2022-08-09T01:25:41.782Z,88.06
2022-08-09T01:25:59.717Z,88.21
2022-08-09T01:26:19.785Z,88.04
2022-08-09T01:26:39.842Z,87.88
2022-08-09T01:26:59.919Z,88.51
2022-08-09T01:27:19.991Z,88.84
2022-08-09T01:27:40.057Z,88.75
2022-08-09T01:28:00.108Z,88.69
2022-08-09T01:28:20.189Z,88.67
2022-08-09T01:28:40.268Z,89.05
2022-08-09T01:29:00.320Z,89.39
2022-08-09T01:29:20.389Z,89.3
2022-08-09T01:29:55.254Z,89.34
2022-08-09T01:30:00.766Z,89.23
2022-08-09T01:30:28.720Z,89.08
2022-08-09T01:30:52.194Z,88.64
2022-08-09T01:31:00.715Z,88.36
2022-08-09T01:32:28.199Z,88.44
2022-08-09T01:32:30.906Z,88.46
2022-08-09T01:32:31.872Z,88.59
2022-08-09T01:32:32.231Z,88.53
2022-08-09T01:32:45.369Z,88.85
2022-08-09T01:33:01.145Z,89.09
2022-08-09T01:33:21.235Z,89.17
2022-08-09T01:33:41.319Z,89.28
2022-08-09T01:34:01.372Z,89.76
2022-08-09T01:34:21.436Z,90.17
2022-08-09T01:34:41.509Z,90.19
2022-08-09T01:35:18.189Z,90.22
2022-08-09T01:35:37.253Z,90.33
2022-08-09T01:35:42.372Z,90.28
2022-08-09T01:36:01.797Z,89.95
2022-08-09T01:36:21.831Z,89.74
2022-08-09T01:36:41.922Z,89.81
2022-08-09T01:37:01.984Z,89.99
2022-08-09T01:38:05.595Z,89.94
2022-08-09T01:38:05.631Z,89.6
2022-08-09T01:38:09.273Z,89.58
2022-08-09T01:38:23.303Z,89.59
2022-08-09T01:38:44.356Z,89.67
2022-08-09T01:39:02.505Z,89.72
2022-08-09T01:39:23.316Z,89.61
2022-08-09T01:39:42.589Z,89.77
2022-08-09T01:40:02.610Z,89.71
2022-08-09T01:40:23.245Z,89.65
2022-08-09T01:40:42.736Z,89.82
2022-08-09T01:41:05.669Z,90.03
2022-08-09T01:41:26.125Z,90.34
2022-08-09T01:41:53.364Z,90.2
2022-08-09T01:42:10.901Z,90.08
2022-08-09T01:42:23.143Z,90.07
2022-08-09T01:42:43.241Z,90.2
2022-08-09T01:43:03.326Z,90.14
2022-08-09T01:43:24.152Z,90.06
2022-08-09T01:43:50.610Z,90
2022-08-09T01:44:03.538Z,90.08
2022-08-09T01:44:23.645Z,89.75
2022-08-09T01:44:43.705Z,89.65
2022-08-09T01:45:03.784Z,89.83
2022-08-09T01:45:23.844Z,89.68
2022-08-09T01:45:46.076Z,89.65
2022-08-09T01:46:03.988Z,89.82
2022-08-09T01:46:26.331Z,89.97
2022-08-09T01:46:47.176Z,90.17
2022-08-09T01:47:04.196Z,90.11
2022-08-09T01:47:24.284Z,89.83
2022-08-09T01:47:44.941Z,89.84
2022-08-09T01:48:05.960Z,89.54
2022-08-09T01:48:29.753Z,89.57
2022-08-09T01:48:44.559Z,89.52
2022-08-09T01:49:10.593Z,89.27
2022-08-09T01:49:24.731Z,89.27
2022-08-09T01:49:48.777Z,89.71
2022-08-09T01:50:06.503Z,90.01
2022-08-09T01:50:29.914Z,89.92
2022-08-09T01:50:48.167Z,89.85
2022-08-09T01:51:05.117Z,89.64
2022-08-09T01:51:26.105Z,89.85
2022-08-09T01:51:53.844Z,89.78
2022-08-09T01:52:07.540Z,89.92
2022-08-09T01:52:25.424Z,90.01
2022-08-09T01:52:45.516Z,90.17
2022-08-09T01:53:19.168Z,90.22
2022-08-09T01:53:29.205Z,89.95
2022-08-09T01:53:45.761Z,89.83
2022-08-09T01:54:05.828Z,89.67
2022-08-09T01:54:25.916Z,89.97
2022-08-09T01:54:45.974Z,90.23
2022-08-09T01:55:06.066Z,90.16
2022-08-09T01:55:26.138Z,89.97
2022-08-09T01:55:46.196Z,89.97
2022-08-09T01:56:06.270Z,89.82
2022-08-09T01:56:26.381Z,89.95
2022-08-09T01:56:47.197Z,90.05
2022-08-09T01:57:06.511Z,90.1
2022-08-09T01:57:26.571Z,90.13
2022-08-09T01:57:46.663Z,90.14
2022-08-09T01:58:06.769Z,90.09
2022-08-09T01:58:28.005Z,90.02
2022-08-09T01:58:48.987Z,90.13
2022-08-09T01:59:06.991Z,90.18
2022-08-09T01:59:27.063Z,90.07
2022-08-09T01:59:51.579Z,90.17
2022-08-09T02:00:09.120Z,90.52
2022-08-09T02:00:35.916Z,90.95
2022-08-09T02:00:50.626Z,90.94
2022-08-09T02:01:07.889Z,90.7
2022-08-09T02:01:30.681Z,90.62
2022-08-09T02:01:59.278Z,90.59
2022-08-09T02:02:07.739Z,90.38
2022-08-09T02:02:30.909Z,90.1
2022-08-09T02:02:47.820Z,89.99
2022-08-09T02:03:07.913Z,89.77
2022-08-09T02:03:28.006Z,89.66
2022-08-09T02:03:48.086Z,89.58
2022-08-09T02:04:08.557Z,89.4
2022-08-09T02:04:28.225Z,89.28
2022-08-09T02:04:48.278Z,89.29
2022-08-09T02:05:15.618Z,89.4
2022-08-09T02:05:37.674Z,89.35
2022-08-09T02:06:03.203Z,89.21
2022-08-09T02:06:08.572Z,88.89
2022-08-09T02:06:28.634Z,88.74
2022-08-09T02:06:58.373Z,88.65
2022-08-09T02:07:18.436Z,88.64
2022-08-09T02:08:39.345Z,88.83
2022-08-09T02:08:39.436Z,88.67
2022-08-09T02:08:40.657Z,88.69
2022-08-09T02:08:40.802Z,88.8
2022-08-09T02:08:58.713Z,88.76
2022-08-09T02:09:09.186Z,88.73
2022-08-09T02:09:42.605Z,89.14
2022-08-09T02:09:59.850Z,89.13
2022-08-09T02:10:09.439Z,89.05
2022-08-09T02:10:32.580Z,88.83
2022-08-09T02:10:51.201Z,88.89
2022-08-09T02:11:17.037Z,88.82
2022-08-09T02:11:41.959Z,88.77
2022-08-09T02:11:49.736Z,88.75
2022-08-09T02:12:09.806Z,88.78
2022-08-09T02:12:30.708Z,88.57
2022-08-09T02:12:49.958Z,88.57
2022-08-09T02:13:10.035Z,88.96
2022-08-09T02:13:37.250Z,89.4
2022-08-09T02:14:06.546Z,89.58
2022-08-09T02:14:10.236Z,89.43
2022-08-09T02:14:30.343Z,89.65
2022-08-09T02:14:51.550Z,90.22
2022-08-09T02:15:15.408Z,90.3
2022-08-09T02:15:48.939Z,90.17
2022-08-09T02:15:50.817Z,90.05
2022-08-09T02:16:10.805Z,89.94
2022-08-09T02:16:52.781Z,89.8
2022-08-09T02:17:00.157Z,89.85
2022-08-09T02:17:55.097Z,89.78
2022-08-09T02:18:00.944Z,89.77
2022-08-09T02:18:01.704Z,89.77
2022-08-09T02:18:11.329Z,89.86
2022-08-09T02:18:31.449Z,89.95
2022-08-09T02:18:51.504Z,90.07
2022-08-09T02:19:11.587Z,90.11
2022-08-09T02:19:34.892Z,90.08
2022-08-09T02:19:51.797Z,90.04
2022-08-09T02:20:11.898Z,90.24
2022-08-09T02:20:32.690Z,90.53
2022-08-09T02:20:52.066Z,90.65
2022-08-09T02:21:17.231Z,90.68
2022-08-09T02:21:32.236Z,90.46
2022-08-09T02:21:55.269Z,90.11
2022-08-09T02:22:12.390Z,89.65
2022-08-09T02:22:35.761Z,89.44
2022-08-09T02:22:52.537Z,89.3
2022-08-09T02:23:12.617Z,89.4
2022-08-09T02:23:42.758Z,89.58
2022-08-09T02:23:52.784Z,89.65
2022-08-09T02:24:12.852Z,89.77
2022-08-09T02:24:32.920Z,90.28
2022-08-09T02:24:53.041Z,90.43
2022-08-09T02:25:15.391Z,90.34
2022-08-09T02:25:33.183Z,90.43
2022-08-09T02:25:55.845Z,90.59
2022-08-09T02:26:24.907Z,90.51
2022-08-09T02:26:33.416Z,90.46
2022-08-09T02:26:53.501Z,90.55
2022-08-09T02:27:13.571Z,90.62
2022-08-09T02:27:57.928Z,90.87
2022-08-09T02:28:00.267Z,91.07
2022-08-09T02:28:17.801Z,91.04
2022-08-09T02:28:33.867Z,90.89
2022-08-09T02:28:53.943Z,90.86
2022-08-09T02:29:14.040Z,91.01
2022-08-09T02:29:34.098Z,91.22
2022-08-09T02:29:54.204Z,91.3
2022-08-09T02:30:14.284Z,91.36
2022-08-09T02:30:34.357Z,91.27
2022-08-09T02:30:54.467Z,90.93
2022-08-09T02:31:14.524Z,91.01
2022-08-09T02:31:36.292Z,91.22
2022-08-09T02:31:54.663Z,91.27
2022-08-09T02:32:14.771Z,91.29
2022-08-09T02:32:34.893Z,91.33
2022-08-09T02:32:54.949Z,91.35
2022-08-09T02:33:17.011Z,91.47
2022-08-09T02:33:37.743Z,91.52
2022-08-09T02:34:06.291Z,91.5
2022-08-09T02:34:40.617Z,91.55
2022-08-09T02:34:40.936Z,91.53
2022-08-09T02:34:55.864Z,91.57
2022-08-09T02:35:17.507Z,91.5
2022-08-09T02:36:01.605Z,91.55
2022-08-09T02:36:01.777Z,91.56
2022-08-09T02:36:15.713Z,91.61
2022-08-09T02:36:35.782Z,91.56
2022-08-09T02:36:55.857Z,91.4
2022-08-09T02:37:15.955Z,91.32
2022-08-09T02:37:36.634Z,91.31
2022-08-09T02:37:56.132Z,91.27
2022-08-09T02:38:22.034Z,91.23
2022-08-09T02:38:36.246Z,91.07
2022-08-09T02:38:56.314Z,91.14
2022-08-09T02:39:33.294Z,91.03
2022-08-09T02:39:41.840Z,91.13
2022-08-09T02:40:01.494Z,91.26
2022-08-09T02:40:18.597Z,91.21
2022-08-09T02:40:36.792Z,91.23
2022-08-09T02:40:56.794Z,91.38
2022-08-09T02:41:16.808Z,91.31
2022-08-09T02:41:36.873Z,91.27
2022-08-09T02:41:56.937Z,91.21
2022-08-09T02:42:17.244Z,91.26
2022-08-09T02:42:37.088Z,91.33
2022-08-09T02:43:00.087Z,91.41
2022-08-09T02:43:17.235Z,91.45
2022-08-09T02:43:47.716Z,91.56
2022-08-09T02:43:57.372Z,91.57
2022-08-09T02:44:29.502Z,91.53
2022-08-09T02:44:37.521Z,91.43
2022-08-09T02:44:57.595Z,91.41
2022-08-09T02:45:17.639Z,91.4
2022-08-09T02:45:37.698Z,91.47
2022-08-09T02:45:57.787Z,91.54
2022-08-09T02:46:17.843Z,91.64
2022-08-09T02:46:37.912Z,91.76
2022-08-09T02:46:58.020Z,91.8
2022-08-09T02:47:18.082Z,91.73
2022-08-09T02:47:57.968Z,91.67
2022-08-09T02:47:59.572Z,91.71
2022-08-09T02:48:30.485Z,91.84
2022-08-09T02:48:38.386Z,91.92
2022-08-09T02:48:58.453Z,91.99
2022-08-09T02:49:18.512Z,91.96
2022-08-09T02:49:41.430Z,91.91
2022-08-09T02:50:01.240Z,91.8
2022-08-09T02:50:18.777Z,91.73
2022-08-09T02:50:38.856Z,91.88
2022-08-09T02:50:58.942Z,92.01
2022-08-09T02:51:19.002Z,91.9
2022-08-09T02:51:40.745Z,91.62
2022-08-09T02:51:59.159Z,91.55
2022-08-09T02:52:19.255Z,91.49
2022-08-09T02:52:39.335Z,91.4
2022-08-09T02:52:59.385Z,91.3
2022-08-09T02:53:26.605Z,91.28
2022-08-09T02:53:39.537Z,91.33
2022-08-09T02:54:00.905Z,91.39
2022-08-09T02:54:19.655Z,91.58
2022-08-09T02:54:53.958Z,91.75
2022-08-09T02:54:59.793Z,91.86
2022-08-09T02:55:21.393Z,91.82
2022-08-09T02:55:53.680Z,91.77
2022-08-09T02:56:00.035Z,91.87
2022-08-09T02:56:20.117Z,92.17
2022-08-09T02:56:40.201Z,92.28
2022-08-09T02:57:00.269Z,92.4
2022-08-09T02:57:23.477Z,92.41
2022-08-09T02:58:00.454Z,92.25
2022-08-09T02:58:32.561Z,92.2
2022-08-09T02:58:37.253Z,92.11
2022-08-09T02:58:40.638Z,92.07
2022-08-09T02:59:00.715Z,92
2022-08-09T02:59:26.547Z,91.83
2022-08-09T02:59:40.841Z,91.78
2022-08-09T03:00:21.500Z,91.74
2022-08-09T03:00:26.010Z,91.65
2022-08-09T03:00:57.692Z,91.66
2022-08-09T03:01:04.285Z,91.87
2022-08-09T03:01:29.103Z,92.26
2022-08-09T03:02:05.110Z,92.45
2022-08-09T03:02:06.727Z,92.56
2022-08-09T03:02:21.543Z,92.7
2022-08-09T03:02:58.711Z,92.66
2022-08-09T03:03:01.613Z,92.55
2022-08-09T03:03:21.761Z,92.5
2022-08-09T03:04:18.088Z,92.64
2022-08-09T03:04:18.165Z,92.54
2022-08-09T03:04:21.921Z,92.3
2022-08-09T03:04:42.018Z,92.16
2022-08-09T03:05:02.069Z,92.34
2022-08-09T03:05:22.150Z,92.72
2022-08-09T03:05:42.208Z,92.89
2022-08-09T03:06:02.305Z,92.88
2022-08-09T03:06:22.452Z,92.86
2022-08-09T03:06:42.510Z,92.99
2022-08-09T03:07:12.459Z,93.21
2022-08-09T03:07:22.670Z,93.2
2022-08-09T03:07:42.752Z,93.21
2022-08-09T03:08:02.842Z,93.32
2022-08-09T03:08:22.910Z,93.4
2022-08-09T03:08:43.010Z,93.42
2022-08-09T03:09:03.074Z,93.49
2022-08-09T03:09:23.177Z,93.44
2022-08-09T03:09:43.417Z,93.42
2022-08-09T03:10:03.330Z,93.38
2022-08-09T03:10:23.408Z,93.41
2022-08-09T03:10:43.836Z,93.5
2022-08-09T03:11:03.573Z,93.66
2022-08-09T03:11:30.223Z,93.71
2022-08-09T03:12:06.362Z,93.77
2022-08-09T03:12:09.976Z,93.6
2022-08-09T03:12:23.901Z,93.54
2022-08-09T03:12:44.004Z,93.44
2022-08-09T03:13:08.220Z,93.41
2022-08-09T03:13:24.165Z,93.39
2022-08-09T03:13:59.368Z,93.48
2022-08-09T03:14:04.336Z,93.53
2022-08-09T03:14:28.071Z,93.5
2022-08-09T03:14:44.503Z,93.42
2022-08-09T03:15:04.608Z,93.31
2022-08-09T03:15:24.662Z,93.26
2022-08-09T03:16:05.781Z,93.18
2022-08-09T03:16:07.080Z,93.15
2022-08-09T03:16:24.878Z,93.18
2022-08-09T03:16:47.705Z,93.25
2022-08-09T03:17:05.713Z,93.21
2022-08-09T03:17:26.607Z,93.26
2022-08-09T03:17:45.201Z,93.39
2022-08-09T03:18:09.879Z,93.46
2022-08-09T03:18:31.251Z,93.45
2022-08-09T03:18:45.464Z,93.35
2022-08-09T03:19:05.867Z,93.31
2022-08-09T03:19:52.769Z,93.41
2022-08-09T03:19:57.775Z,93.35
2022-08-09T03:20:11.402Z,93.5
2022-08-09T03:20:25.864Z,93.59
2022-08-09T03:20:45.939Z,93.7
2022-08-09T03:21:05.977Z,93.69
2022-08-09T03:21:26.109Z,93.73
2022-08-09T03:21:50.856Z,93.69
2022-08-09T03:22:12.152Z,93.64
2022-08-09T03:22:30.374Z,93.6
2022-08-09T03:22:46.626Z,93.61
2022-08-09T03:23:15.329Z,93.62
2022-08-09T03:23:26.476Z,93.59
2022-08-09T03:23:58.615Z,93.6
2022-08-09T03:24:06.653Z,93.59
2022-08-09T03:24:31.589Z,93.59
2022-08-09T03:24:51.763Z,93.64
2022-08-09T03:25:21.699Z,93.67
2022-08-09T03:25:58.221Z,93.37
2022-08-09T03:25:58.454Z,93.51
2022-08-09T03:26:07.117Z,93.28
2022-08-09T03:26:32.046Z,93.25
2022-08-09T03:26:47.310Z,93.31
2022-08-09T03:27:07.420Z,93.41
2022-08-09T03:27:27.483Z,93.5
2022-08-09T03:27:47.545Z,93.46
2022-08-09T03:28:11.248Z,93.27
2022-08-09T03:28:27.698Z,93.25
2022-08-09T03:28:47.766Z,93.21
2022-08-09T03:29:13.454Z,93.36
2022-08-09T03:29:27.886Z,93.34
2022-08-09T03:29:57.815Z,93.26
2022-08-09T03:30:08.035Z,93.13
2022-08-09T03:30:33.574Z,93.06
2022-08-09T03:30:49.091Z,93.05
2022-08-09T03:31:10.449Z,93.04
2022-08-09T03:31:28.333Z,92.95
2022-08-09T03:32:00.502Z,92.82
2022-08-09T03:32:08.517Z,92.76
2022-08-09T03:32:28.521Z,92.69
2022-08-09T03:32:48.573Z,92.62
2022-08-09T03:33:12.864Z,92.45
2022-08-09T03:33:53.210Z,92.41
2022-08-09T03:33:54.624Z,92.36
2022-08-09T03:34:08.887Z,92.27
2022-08-09T03:34:28.960Z,92.25
2022-08-09T03:34:49.016Z,92.44
2022-08-09T03:35:15.123Z,92.54
2022-08-09T03:36:11.857Z,92.72
2022-08-09T03:36:12.401Z,92.91
2022-08-09T03:36:12.676Z,93.01
2022-08-09T03:36:29.378Z,93.2
2022-08-09T03:36:59.605Z,93.34
2022-08-09T03:37:53.261Z,93.55
2022-08-09T03:37:55.421Z,93.68
2022-08-09T03:37:55.754Z,93.83
2022-08-09T03:38:09.752Z,93.76
2022-08-09T03:38:30.549Z,93.74
2022-08-09T03:38:49.846Z,93.79
2022-08-09T03:39:09.993Z,93.86
2022-08-09T03:39:37.834Z,93.89
2022-08-09T03:39:55.710Z,93.89
2022-08-09T03:40:13.235Z,93.87
2022-08-09T03:40:31.069Z,94.02
2022-08-09T03:40:50.276Z,94.09
2022-08-09T03:41:10.336Z,94.06
2022-08-09T03:41:48.497Z,94.01
2022-08-09T03:41:50.459Z,93.84
2022-08-09T03:42:10.513Z,93.81
2022-08-09T03:42:30.843Z,93.75
2022-08-09T03:42:50.682Z,93.63
2022-08-09T03:43:11.550Z,93.7
2022-08-09T03:43:31.541Z,93.71
2022-08-09T03:44:03.366Z,93.8
2022-08-09T03:44:12.116Z,93.87
2022-08-09T03:44:31.970Z,93.98
2022-08-09T03:44:51.217Z,94.14
2022-08-09T03:45:11.317Z,94.2
2022-08-09T03:46:04.315Z,94.18
2022-08-09T03:46:05.396Z,94.18
2022-08-09T03:46:20.608Z,94.11
2022-08-09T03:46:31.688Z,93.95
2022-08-09T03:46:51.753Z,93.72
2022-08-09T03:47:11.832Z,93.53
2022-08-09T03:47:31.905Z,93.38
2022-08-09T03:47:51.981Z,93.11
2022-08-09T03:48:12.051Z,93.03
2022-08-09T03:48:32.133Z,93.18
2022-08-09T03:48:52.278Z,93.37
2022-08-09T03:49:12.297Z,93.66
2022-08-09T03:49:35.654Z,93.84
2022-08-09T03:49:58.317Z,93.95
2022-08-09T03:50:12.527Z,93.89
2022-08-09T03:50:32.600Z,93.89
2022-08-09T03:50:52.679Z,93.93
2022-08-09T03:51:55.455Z,93.91
2022-08-09T03:51:55.737Z,93.88
2022-08-09T03:51:58.341Z,93.86
2022-08-09T03:52:12.941Z,93.89
2022-08-09T03:52:33.304Z,93.9
2022-08-09T03:52:53.106Z,93.98
2022-08-09T03:53:13.177Z,94.16
2022-08-09T03:53:37.118Z,94.26
2022-08-09T03:53:53.308Z,94.2
2022-08-09T03:54:13.368Z,94.21
2022-08-09T03:54:34.415Z,94.28
2022-08-09T03:54:53.538Z,94.16
2022-08-09T03:55:14.434Z,93.93
2022-08-09T03:55:36.168Z,93.63
2022-08-09T03:55:53.794Z,93.56
2022-08-09T03:56:13.883Z,93.68
2022-08-09T03:56:33.949Z,93.6
2022-08-09T03:56:54.071Z,93.68
2022-08-09T03:57:20.334Z,93.67
2022-08-09T03:57:34.207Z,93.61
2022-08-09T03:58:03.473Z,93.53
2022-08-09T03:58:14.955Z,93.49
2022-08-09T03:58:34.472Z,93.56
2022-08-09T03:58:54.684Z,93.42
2022-08-09T03:59:21.109Z,93.35
2022-08-09T03:59:53.514Z,93.22
2022-08-09T04:00:00.495Z,93.19
2022-08-09T04:00:14.866Z,93.22
2022-08-09T04:00:35.025Z,93.38
2022-08-09T04:00:55.095Z,93.64
2022-08-09T04:01:15.206Z,93.74
2022-08-09T04:01:35.210Z,93.76
2022-08-09T04:01:55.281Z,93.94
2022-08-09T04:02:15.366Z,93.95
2022-08-09T04:02:35.828Z,93.91
2022-08-09T04:02:55.503Z,93.84
2022-08-09T04:03:24.822Z,93.83
2022-08-09T04:04:01.078Z,93.89
2022-08-09T04:04:01.359Z,94.02
2022-08-09T04:04:15.790Z,94.18
2022-08-09T04:04:36.320Z,94.21
2022-08-09T04:04:55.959Z,94.18
2022-08-09T04:05:26.687Z,94.17
2022-08-09T04:05:40.488Z,94.16
2022-08-09T04:05:56.171Z,94.17
2022-08-09T04:06:16.260Z,94.16
2022-08-09T04:06:36.338Z,94.18
2022-08-09T04:06:56.425Z,94.13
2022-08-09T04:07:16.475Z,94.15
2022-08-09T04:07:52.818Z,94.24
2022-08-09T04:07:57.700Z,94.22
2022-08-09T04:08:16.675Z,94.2
2022-08-09T04:08:36.756Z,94.16
2022-08-09T04:08:56.853Z,94.13
2022-08-09T04:09:41.645Z,94.15
2022-08-09T04:09:47.520Z,94.14
2022-08-09T04:09:57.049Z,94.15
2022-08-09T04:10:18.202Z,94.12
2022-08-09T04:10:37.224Z,94.02
2022-08-09T04:11:01.469Z,94.04
2022-08-09T04:11:17.355Z,93.99
2022-08-09T04:11:37.434Z,93.97
2022-08-09T04:11:57.516Z,94.01
2022-08-09T04:12:37.653Z,94.03
2022-08-09T04:12:40.746Z,94.01
2022-08-09T04:12:57.851Z,94.05
2022-08-09T04:13:18.564Z,94.14
2022-08-09T04:14:36.569Z,94.16
2022-08-09T04:14:53.758Z,93.97
2022-08-09T04:14:54.218Z,94.06
2022-08-09T04:15:01.483Z,94.03
2022-08-09T04:15:02.503Z,93.96
2022-08-09T04:15:39.197Z,93.8
2022-08-09T04:16:18.612Z,93.72
2022-08-09T04:16:19.313Z,93.65
2022-08-09T04:16:21.179Z,93.73
2022-08-09T04:16:38.572Z,93.77
2022-08-09T04:16:58.647Z,93.75
2022-08-09T04:17:18.702Z,93.65
2022-08-09T04:17:39.385Z,93.56
2022-08-09T04:17:59.005Z,93.57
2022-08-09T04:18:19.490Z,93.66
2022-08-09T04:18:39.001Z,93.55
2022-08-09T04:18:59.375Z,93.34
2022-08-09T04:19:43.100Z,93.28